sensor_id;sensor_type;location;lat;lon;timestamp;P1;durP1;ratioP1;P2;durP2;ratioP2
17921;SDS011;9086;50.966;3.144;2022-12-18T00:01:43;60.17;;;26.63;;
17921;SDS011;9086;50.966;3.144;2022-12-18T00:04:18;46.73;;;25.97;;
17921;SDS011;9086;50.966;3.144;2022-12-18T00:06:46;50.60;;;25.87;;
17921;SDS011;9086;50.966;3.144;2022-12-18T00:09:12;55.30;;;26.93;;
17921;SDS011;9086;50.966;3.144;2022-12-18T00:11:38;55.90;;;26.53;;
17921;SDS011;9086;50.966;3.144;2022-12-18T00:14:04;57.50;;;25.07;;
17921;SDS011;9086;50.966;3.144;2022-12-18T00:16:30;49.83;;;25.33;;
17921;SDS011;9086;50.966;3.144;2022-12-18T00:18:58;61.83;;;25.47;;
17921;SDS011;9086;50.966;3.144;2022-12-18T00:21:25;58.07;;;27.07;;
17921;SDS011;9086;50.966;3.144;2022-12-18T00:23:51;52.03;;;25.03;;
17921;SDS011;9086;50.966;3.144;2022-12-18T00:26:28;56.57;;;26.90;;
17921;SDS011;9086;50.966;3.144;2022-12-18T00:28:55;53.37;;;26.70;;
17921;SDS011;9086;50.966;3.144;2022-12-18T00:31:24;59.63;;;27.17;;
17921;SDS011;9086;50.966;3.144;2022-12-18T00:33:50;64.83;;;27.20;;
17921;SDS011;9086;50.966;3.144;2022-12-18T00:36:17;63.77;;;29.07;;
17921;SDS011;9086;50.966;3.144;2022-12-18T00:38:43;60.10;;;27.63;;
17921;SDS011;9086;50.966;3.144;2022-12-18T00:41:10;60.47;;;27.73;;
17921;SDS011;9086;50.966;3.144;2022-12-18T00:43:37;54.53;;;26.53;;
17921;SDS011;9086;50.966;3.144;2022-12-18T00:46:03;58.30;;;27.50;;
17921;SDS011;9086;50.966;3.144;2022-12-18T00:48:30;53.97;;;26.87;;
17921;SDS011;9086;50.966;3.144;2022-12-18T00:50:56;55.43;;;27.00;;
17921;SDS011;9086;50.966;3.144;2022-12-18T00:53:22;58.17;;;27.93;;
17921;SDS011;9086;50.966;3.144;2022-12-18T00:55:48;53.93;;;26.83;;
17921;SDS011;9086;50.966;3.144;2022-12-18T00:58:14;53.97;;;26.47;;
17921;SDS011;9086;50.966;3.144;2022-12-18T01:00:41;65.30;;;28.80;;
17921;SDS011;9086;50.966;3.144;2022-12-18T01:03:07;51.80;;;26.87;;
17921;SDS011;9086;50.966;3.144;2022-12-18T01:05:33;58.57;;;28.57;;
17921;SDS011;9086;50.966;3.144;2022-12-18T01:07:59;52.97;;;27.10;;
17921;SDS011;9086;50.966;3.144;2022-12-18T01:10:25;59.10;;;27.33;;
17921;SDS011;9086;50.966;3.144;2022-12-18T01:12:51;51.13;;;27.57;;
17921;SDS011;9086;50.966;3.144;2022-12-18T01:15:18;52.17;;;25.73;;
17921;SDS011;9086;50.966;3.144;2022-12-18T01:17:44;49.53;;;26.07;;
17921;SDS011;9086;50.966;3.144;2022-12-18T01:20:11;55.77;;;27.00;;
17921;SDS011;9086;50.966;3.144;2022-12-18T01:22:37;53.70;;;26.77;;
17921;SDS011;9086;50.966;3.144;2022-12-18T01:25:04;50.43;;;26.60;;
17921;SDS011;9086;50.966;3.144;2022-12-18T01:27:30;55.47;;;28.43;;
17921;SDS011;9086;50.966;3.144;2022-12-18T01:29:56;48.07;;;24.20;;
17921;SDS011;9086;50.966;3.144;2022-12-18T01:32:22;48.90;;;26.17;;
17921;SDS011;9086;50.966;3.144;2022-12-18T01:34:48;46.13;;;26.10;;
17921;SDS011;9086;50.966;3.144;2022-12-18T01:37:14;54.23;;;28.67;;
17921;SDS011;9086;50.966;3.144;2022-12-18T01:39:40;49.80;;;26.50;;
17921;SDS011;9086;50.966;3.144;2022-12-18T01:42:13;60.83;;;29.00;;
17921;SDS011;9086;50.966;3.144;2022-12-18T01:47:30;48.73;;;26.43;;
17921;SDS011;9086;50.966;3.144;2022-12-18T01:49:58;47.67;;;25.63;;
17921;SDS011;9086;50.966;3.144;2022-12-18T01:52:26;50.67;;;25.57;;
17921;SDS011;9086;50.966;3.144;2022-12-18T01:54:54;48.70;;;26.50;;
17921;SDS011;9086;50.966;3.144;2022-12-18T01:57:20;52.97;;;26.07;;
17921;SDS011;9086;50.966;3.144;2022-12-18T01:59:47;47.53;;;24.97;;
17921;SDS011;9086;50.966;3.144;2022-12-18T02:02:15;42.77;;;23.10;;
17921;SDS011;9086;50.966;3.144;2022-12-18T02:04:42;49.30;;;24.57;;
17921;SDS011;9086;50.966;3.144;2022-12-18T02:07:24;49.97;;;25.93;;
17921;SDS011;9086;50.966;3.144;2022-12-18T02:10:10;52.63;;;24.80;;
17921;SDS011;9086;50.966;3.144;2022-12-18T02:12:50;45.40;;;24.10;;
17921;SDS011;9086;50.966;3.144;2022-12-18T02:15:20;44.13;;;24.93;;
17921;SDS011;9086;50.966;3.144;2022-12-18T02:18:00;43.30;;;24.87;;
17921;SDS011;9086;50.966;3.144;2022-12-18T02:25:59;41.30;;;23.90;;
17921;SDS011;9086;50.966;3.144;2022-12-18T02:28:28;47.77;;;23.53;;
17921;SDS011;9086;50.966;3.144;2022-12-18T02:30:57;42.17;;;23.27;;
17921;SDS011;9086;50.966;3.144;2022-12-18T02:33:25;43.47;;;22.57;;
17921;SDS011;9086;50.966;3.144;2022-12-18T02:35:53;47.77;;;24.73;;
17921;SDS011;9086;50.966;3.144;2022-12-18T02:38:19;47.03;;;25.83;;
17921;SDS011;9086;50.966;3.144;2022-12-18T02:40:46;45.33;;;25.27;;
17921;SDS011;9086;50.966;3.144;2022-12-18T02:43:13;44.23;;;23.13;;
17921;SDS011;9086;50.966;3.144;2022-12-18T02:45:50;44.13;;;24.40;;
17921;SDS011;9086;50.966;3.144;2022-12-18T02:48:18;42.70;;;23.23;;
17921;SDS011;9086;50.966;3.144;2022-12-18T02:50:53;45.00;;;23.97;;
17921;SDS011;9086;50.966;3.144;2022-12-18T02:53:24;45.93;;;24.73;;
17921;SDS011;9086;50.966;3.144;2022-12-18T02:56:09;44.43;;;24.30;;
17921;SDS011;9086;50.966;3.144;2022-12-18T03:04:09;42.97;;;20.23;;
17921;SDS011;9086;50.966;3.144;2022-12-18T03:06:41;45.37;;;25.23;;
17921;SDS011;9086;50.966;3.144;2022-12-18T03:09:12;46.47;;;24.50;;
17921;SDS011;9086;50.966;3.144;2022-12-18T03:11:41;46.03;;;24.40;;
17921;SDS011;9086;50.966;3.144;2022-12-18T03:14:28;38.57;;;21.77;;
17921;SDS011;9086;50.966;3.144;2022-12-18T03:16:57;45.33;;;24.40;;
17921;SDS011;9086;50.966;3.144;2022-12-18T03:19:25;41.60;;;22.53;;
17921;SDS011;9086;50.966;3.144;2022-12-18T03:21:55;49.03;;;24.77;;
17921;SDS011;9086;50.966;3.144;2022-12-18T03:24:21;45.07;;;25.13;;
17921;SDS011;9086;50.966;3.144;2022-12-18T03:26:49;37.93;;;21.80;;
17921;SDS011;9086;50.966;3.144;2022-12-18T03:29:17;40.30;;;21.63;;
17921;SDS011;9086;50.966;3.144;2022-12-18T03:31:45;49.40;;;24.97;;
17921;SDS011;9086;50.966;3.144;2022-12-18T03:34:14;47.03;;;23.47;;
17921;SDS011;9086;50.966;3.144;2022-12-18T03:36:41;45.13;;;23.43;;
17921;SDS011;9086;50.966;3.144;2022-12-18T03:39:07;45.77;;;24.60;;
17921;SDS011;9086;50.966;3.144;2022-12-18T03:41:34;42.27;;;23.60;;
17921;SDS011;9086;50.966;3.144;2022-12-18T03:44:11;42.70;;;23.00;;
17921;SDS011;9086;50.966;3.144;2022-12-18T03:49:09;39.80;;;22.77;;
17921;SDS011;9086;50.966;3.144;2022-12-18T03:51:48;40.60;;;21.93;;
17921;SDS011;9086;50.966;3.144;2022-12-18T03:54:15;42.97;;;22.53;;
17921;SDS011;9086;50.966;3.144;2022-12-18T03:56:44;42.50;;;22.87;;
17921;SDS011;9086;50.966;3.144;2022-12-18T03:59:12;46.03;;;22.13;;
17921;SDS011;9086;50.966;3.144;2022-12-18T04:01:39;46.73;;;22.17;;
17921;SDS011;9086;50.966;3.144;2022-12-18T04:04:07;42.03;;;23.97;;
17921;SDS011;9086;50.966;3.144;2022-12-18T04:06:34;40.93;;;22.67;;
17921;SDS011;9086;50.966;3.144;2022-12-18T04:09:00;40.83;;;22.47;;
17921;SDS011;9086;50.966;3.144;2022-12-18T04:11:26;39.03;;;22.37;;
17921;SDS011;9086;50.966;3.144;2022-12-18T04:13:56;39.37;;;23.47;;
17921;SDS011;9086;50.966;3.144;2022-12-18T04:16:23;44.40;;;22.97;;
17921;SDS011;9086;50.966;3.144;2022-12-18T04:18:49;39.80;;;22.53;;
17921;SDS011;9086;50.966;3.144;2022-12-18T04:21:15;43.57;;;22.20;;
17921;SDS011;9086;50.966;3.144;2022-12-18T04:23:41;39.13;;;22.13;;
17921;SDS011;9086;50.966;3.144;2022-12-18T04:26:07;35.57;;;20.37;;
17921;SDS011;9086;50.966;3.144;2022-12-18T04:28:33;33.60;;;20.30;;
17921;SDS011;9086;50.966;3.144;2022-12-18T04:30:59;33.23;;;20.40;;
17921;SDS011;9086;50.966;3.144;2022-12-18T04:33:25;38.37;;;22.00;;
17921;SDS011;9086;50.966;3.144;2022-12-18T04:35:52;38.50;;;20.70;;
17921;SDS011;9086;50.966;3.144;2022-12-18T04:38:18;34.97;;;20.27;;
17921;SDS011;9086;50.966;3.144;2022-12-18T04:40:44;34.97;;;20.70;;
17921;SDS011;9086;50.966;3.144;2022-12-18T04:43:10;34.47;;;19.60;;
17921;SDS011;9086;50.966;3.144;2022-12-18T04:45:36;33.43;;;19.77;;
17921;SDS011;9086;50.966;3.144;2022-12-18T04:48:03;35.20;;;19.73;;
17921;SDS011;9086;50.966;3.144;2022-12-18T04:50:29;35.53;;;19.20;;
17921;SDS011;9086;50.966;3.144;2022-12-18T04:52:55;38.40;;;21.57;;
17921;SDS011;9086;50.966;3.144;2022-12-18T04:55:21;38.90;;;20.67;;
17921;SDS011;9086;50.966;3.144;2022-12-18T04:57:49;39.73;;;21.13;;
17921;SDS011;9086;50.966;3.144;2022-12-18T05:00:15;38.47;;;21.17;;
17921;SDS011;9086;50.966;3.144;2022-12-18T05:02:41;36.53;;;21.77;;
17921;SDS011;9086;50.966;3.144;2022-12-18T05:05:07;35.87;;;21.73;;
17921;SDS011;9086;50.966;3.144;2022-12-18T05:07:33;41.53;;;22.67;;
17921;SDS011;9086;50.966;3.144;2022-12-18T05:09:59;40.57;;;22.20;;
17921;SDS011;9086;50.966;3.144;2022-12-18T05:12:25;37.30;;;20.87;;
17921;SDS011;9086;50.966;3.144;2022-12-18T05:14:52;40.20;;;22.73;;
17921;SDS011;9086;50.966;3.144;2022-12-18T05:17:18;36.47;;;22.30;;
17921;SDS011;9086;50.966;3.144;2022-12-18T05:19:44;35.30;;;21.70;;
17921;SDS011;9086;50.966;3.144;2022-12-18T05:22:10;35.03;;;20.53;;
17921;SDS011;9086;50.966;3.144;2022-12-18T05:24:36;38.60;;;22.33;;
17921;SDS011;9086;50.966;3.144;2022-12-18T05:27:02;32.60;;;21.33;;
17921;SDS011;9086;50.966;3.144;2022-12-18T05:29:28;36.87;;;21.13;;
17921;SDS011;9086;50.966;3.144;2022-12-18T05:31:54;35.23;;;21.03;;
17921;SDS011;9086;50.966;3.144;2022-12-18T05:34:20;40.00;;;21.30;;
17921;SDS011;9086;50.966;3.144;2022-12-18T05:36:46;37.83;;;20.17;;
17921;SDS011;9086;50.966;3.144;2022-12-18T05:39:12;32.47;;;19.83;;
17921;SDS011;9086;50.966;3.144;2022-12-18T05:41:38;30.00;;;19.00;;
17921;SDS011;9086;50.966;3.144;2022-12-18T05:44:04;32.80;;;19.40;;
17921;SDS011;9086;50.966;3.144;2022-12-18T05:46:30;34.03;;;19.57;;
17921;SDS011;9086;50.966;3.144;2022-12-18T05:48:58;31.00;;;18.50;;
17921;SDS011;9086;50.966;3.144;2022-12-18T05:51:24;36.17;;;21.50;;
17921;SDS011;9086;50.966;3.144;2022-12-18T05:53:51;32.23;;;19.33;;
17921;SDS011;9086;50.966;3.144;2022-12-18T05:56:18;34.90;;;20.87;;
17921;SDS011;9086;50.966;3.144;2022-12-18T05:58:44;37.07;;;20.83;;
17921;SDS011;9086;50.966;3.144;2022-12-18T06:01:12;33.60;;;20.03;;
17921;SDS011;9086;50.966;3.144;2022-12-18T06:03:38;39.97;;;21.97;;
17921;SDS011;9086;50.966;3.144;2022-12-18T06:06:11;37.00;;;22.70;;
17921;SDS011;9086;50.966;3.144;2022-12-18T06:08:38;36.70;;;21.53;;
17921;SDS011;9086;50.966;3.144;2022-12-18T06:11:04;32.47;;;19.57;;
17921;SDS011;9086;50.966;3.144;2022-12-18T06:13:30;34.80;;;20.77;;
17921;SDS011;9086;50.966;3.144;2022-12-18T06:15:56;31.90;;;20.37;;
17921;SDS011;9086;50.966;3.144;2022-12-18T06:18:22;36.27;;;21.07;;
17921;SDS011;9086;50.966;3.144;2022-12-18T06:20:54;27.23;;;16.63;;
17921;SDS011;9086;50.966;3.144;2022-12-18T06:23:21;28.77;;;17.57;;
17921;SDS011;9086;50.966;3.144;2022-12-18T06:25:47;35.93;;;20.43;;
17921;SDS011;9086;50.966;3.144;2022-12-18T06:28:13;28.83;;;18.67;;
17921;SDS011;9086;50.966;3.144;2022-12-18T06:30:39;28.13;;;16.50;;
17921;SDS011;9086;50.966;3.144;2022-12-18T06:33:05;27.13;;;16.73;;
17921;SDS011;9086;50.966;3.144;2022-12-18T06:35:31;28.47;;;18.77;;
17921;SDS011;9086;50.966;3.144;2022-12-18T06:37:57;27.77;;;14.80;;
17921;SDS011;9086;50.966;3.144;2022-12-18T06:40:23;17.70;;;10.30;;
17921;SDS011;9086;50.966;3.144;2022-12-18T06:42:49;21.30;;;13.43;;
17921;SDS011;9086;50.966;3.144;2022-12-18T06:45:15;24.80;;;15.53;;
17921;SDS011;9086;50.966;3.144;2022-12-18T06:47:41;22.93;;;14.73;;
17921;SDS011;9086;50.966;3.144;2022-12-18T06:50:08;26.03;;;16.87;;
17921;SDS011;9086;50.966;3.144;2022-12-18T06:52:34;28.10;;;16.53;;
17921;SDS011;9086;50.966;3.144;2022-12-18T06:55:01;26.27;;;14.50;;
17921;SDS011;9086;50.966;3.144;2022-12-18T06:57:27;28.77;;;17.03;;
17921;SDS011;9086;50.966;3.144;2022-12-18T06:59:53;26.07;;;15.20;;
17921;SDS011;9086;50.966;3.144;2022-12-18T07:02:19;27.03;;;16.00;;
17921;SDS011;9086;50.966;3.144;2022-12-18T07:04:46;22.10;;;13.53;;
17921;SDS011;9086;50.966;3.144;2022-12-18T07:07:12;26.83;;;15.13;;
17921;SDS011;9086;50.966;3.144;2022-12-18T07:09:38;26.80;;;15.97;;
17921;SDS011;9086;50.966;3.144;2022-12-18T07:12:04;27.20;;;14.57;;
17921;SDS011;9086;50.966;3.144;2022-12-18T07:14:30;22.93;;;12.83;;
17921;SDS011;9086;50.966;3.144;2022-12-18T07:16:56;21.13;;;14.10;;
17921;SDS011;9086;50.966;3.144;2022-12-18T07:19:22;24.67;;;14.30;;
17921;SDS011;9086;50.966;3.144;2022-12-18T07:21:49;20.33;;;12.87;;
17921;SDS011;9086;50.966;3.144;2022-12-18T07:24:15;20.13;;;12.53;;
17921;SDS011;9086;50.966;3.144;2022-12-18T07:26:41;20.17;;;14.47;;
17921;SDS011;9086;50.966;3.144;2022-12-18T07:29:07;20.77;;;13.53;;
17921;SDS011;9086;50.966;3.144;2022-12-18T07:31:33;20.53;;;12.07;;
17921;SDS011;9086;50.966;3.144;2022-12-18T07:33:59;23.30;;;13.00;;
17921;SDS011;9086;50.966;3.144;2022-12-18T07:36:25;26.37;;;14.57;;
17921;SDS011;9086;50.966;3.144;2022-12-18T07:38:51;19.20;;;12.30;;
17921;SDS011;9086;50.966;3.144;2022-12-18T07:41:18;16.20;;;9.27;;
17921;SDS011;9086;50.966;3.144;2022-12-18T07:43:44;24.53;;;11.53;;
17921;SDS011;9086;50.966;3.144;2022-12-18T07:46:10;21.17;;;10.73;;
17921;SDS011;9086;50.966;3.144;2022-12-18T07:48:38;19.27;;;11.77;;
17921;SDS011;9086;50.966;3.144;2022-12-18T07:51:05;18.03;;;10.70;;
17921;SDS011;9086;50.966;3.144;2022-12-18T07:53:32;9.57;;;5.63;;
17921;SDS011;9086;50.966;3.144;2022-12-18T07:55:59;18.60;;;10.23;;
17921;SDS011;9086;50.966;3.144;2022-12-18T07:58:25;19.23;;;10.93;;
17921;SDS011;9086;50.966;3.144;2022-12-18T08:00:51;16.27;;;10.03;;
17921;SDS011;9086;50.966;3.144;2022-12-18T08:03:17;20.00;;;11.67;;
17921;SDS011;9086;50.966;3.144;2022-12-18T08:05:44;23.33;;;11.07;;
17921;SDS011;9086;50.966;3.144;2022-12-18T08:08:10;17.30;;;10.50;;
17921;SDS011;9086;50.966;3.144;2022-12-18T08:10:36;25.40;;;11.63;;
17921;SDS011;9086;50.966;3.144;2022-12-18T08:13:02;17.17;;;11.07;;
17921;SDS011;9086;50.966;3.144;2022-12-18T08:15:28;19.17;;;10.70;;
17921;SDS011;9086;50.966;3.144;2022-12-18T08:17:58;14.23;;;9.67;;
17921;SDS011;9086;50.966;3.144;2022-12-18T08:20:24;19.93;;;11.33;;
17921;SDS011;9086;50.966;3.144;2022-12-18T08:22:50;16.97;;;10.87;;
17921;SDS011;9086;50.966;3.144;2022-12-18T08:25:16;18.07;;;11.07;;
17921;SDS011;9086;50.966;3.144;2022-12-18T08:27:42;18.67;;;11.23;;
17921;SDS011;9086;50.966;3.144;2022-12-18T08:30:08;15.43;;;8.83;;
17921;SDS011;9086;50.966;3.144;2022-12-18T08:32:34;16.57;;;10.03;;
17921;SDS011;9086;50.966;3.144;2022-12-18T08:35:01;18.50;;;9.80;;
17921;SDS011;9086;50.966;3.144;2022-12-18T08:37:27;15.93;;;9.90;;
17921;SDS011;9086;50.966;3.144;2022-12-18T08:39:53;15.80;;;8.90;;
17921;SDS011;9086;50.966;3.144;2022-12-18T08:42:19;18.47;;;10.83;;
17921;SDS011;9086;50.966;3.144;2022-12-18T08:45:19;18.93;;;11.43;;
17921;SDS011;9086;50.966;3.144;2022-12-18T08:47:45;13.03;;;7.17;;
17921;SDS011;9086;50.966;3.144;2022-12-18T08:50:11;20.27;;;9.77;;
17921;SDS011;9086;50.966;3.144;2022-12-18T08:52:37;15.67;;;10.57;;
17921;SDS011;9086;50.966;3.144;2022-12-18T08:55:03;15.60;;;8.37;;
17921;SDS011;9086;50.966;3.144;2022-12-18T08:57:29;12.73;;;7.50;;
17921;SDS011;9086;50.966;3.144;2022-12-18T08:59:58;16.03;;;7.00;;
17921;SDS011;9086;50.966;3.144;2022-12-18T09:02:27;17.63;;;11.43;;
17921;SDS011;9086;50.966;3.144;2022-12-18T09:04:54;8.97;;;4.63;;
17921;SDS011;9086;50.966;3.144;2022-12-18T09:07:20;12.77;;;9.03;;
17921;SDS011;9086;50.966;3.144;2022-12-18T09:09:46;14.03;;;8.93;;
17921;SDS011;9086;50.966;3.144;2022-12-18T09:12:12;17.33;;;10.40;;
17921;SDS011;9086;50.966;3.144;2022-12-18T09:14:38;19.77;;;10.77;;
17921;SDS011;9086;50.966;3.144;2022-12-18T09:17:04;18.60;;;11.43;;
17921;SDS011;9086;50.966;3.144;2022-12-18T09:19:30;15.63;;;10.33;;
17921;SDS011;9086;50.966;3.144;2022-12-18T09:21:56;17.73;;;11.97;;
17921;SDS011;9086;50.966;3.144;2022-12-18T09:24:22;22.43;;;12.70;;
17921;SDS011;9086;50.966;3.144;2022-12-18T09:26:48;16.50;;;10.17;;
17921;SDS011;9086;50.966;3.144;2022-12-18T09:29:15;19.43;;;11.77;;
17921;SDS011;9086;50.966;3.144;2022-12-18T09:31:41;19.83;;;11.83;;
17921;SDS011;9086;50.966;3.144;2022-12-18T09:34:10;18.47;;;10.80;;
17921;SDS011;9086;50.966;3.144;2022-12-18T09:36:36;15.47;;;10.37;;
17921;SDS011;9086;50.966;3.144;2022-12-18T09:39:02;21.03;;;11.43;;
17921;SDS011;9086;50.966;3.144;2022-12-18T09:44:11;16.67;;;11.13;;
17921;SDS011;9086;50.966;3.144;2022-12-18T09:46:42;22.37;;;12.30;;
17921;SDS011;9086;50.966;3.144;2022-12-18T09:49:11;15.80;;;10.23;;
17921;SDS011;9086;50.966;3.144;2022-12-18T09:51:54;19.60;;;11.90;;
17921;SDS011;9086;50.966;3.144;2022-12-18T09:54:22;17.33;;;11.47;;
17921;SDS011;9086;50.966;3.144;2022-12-18T09:56:50;14.93;;;9.53;;
17921;SDS011;9086;50.966;3.144;2022-12-18T09:59:24;17.93;;;11.30;;
17921;SDS011;9086;50.966;3.144;2022-12-18T10:01:51;18.93;;;13.03;;
17921;SDS011;9086;50.966;3.144;2022-12-18T10:04:18;17.67;;;12.40;;
17921;SDS011;9086;50.966;3.144;2022-12-18T10:06:46;20.57;;;12.67;;
17921;SDS011;9086;50.966;3.144;2022-12-18T10:09:20;20.10;;;14.10;;
17921;SDS011;9086;50.966;3.144;2022-12-18T10:11:58;18.00;;;12.83;;
17921;SDS011;9086;50.966;3.144;2022-12-18T10:19:46;18.13;;;11.40;;
17921;SDS011;9086;50.966;3.144;2022-12-18T10:25:22;22.07;;;12.77;;
17921;SDS011;9086;50.966;3.144;2022-12-18T10:27:45;23.33;;;14.57;;
17921;SDS011;9086;50.966;3.144;2022-12-18T10:30:12;19.67;;;14.23;;
17921;SDS011;9086;50.966;3.144;2022-12-18T10:32:39;21.50;;;13.50;;
17921;SDS011;9086;50.966;3.144;2022-12-18T10:35:08;23.70;;;14.50;;
17921;SDS011;9086;50.966;3.144;2022-12-18T10:37:37;21.97;;;13.60;;
17921;SDS011;9086;50.966;3.144;2022-12-18T10:40:23;22.07;;;14.10;;
17921;SDS011;9086;50.966;3.144;2022-12-18T10:43:31;20.40;;;14.03;;
17921;SDS011;9086;50.966;3.144;2022-12-18T10:45:39;21.83;;;13.27;;
17921;SDS011;9086;50.966;3.144;2022-12-18T10:48:17;21.43;;;12.73;;
17921;SDS011;9086;50.966;3.144;2022-12-18T10:50:45;24.87;;;14.70;;
17921;SDS011;9086;50.966;3.144;2022-12-18T10:53:13;21.50;;;13.43;;
17921;SDS011;9086;50.966;3.144;2022-12-18T10:55:44;23.33;;;16.20;;
17921;SDS011;9086;50.966;3.144;2022-12-18T11:03:41;19.17;;;11.90;;
17921;SDS011;9086;50.966;3.144;2022-12-18T11:06:12;20.20;;;13.27;;
17921;SDS011;9086;50.966;3.144;2022-12-18T11:08:39;25.13;;;14.70;;
17921;SDS011;9086;50.966;3.144;2022-12-18T11:11:07;27.80;;;15.47;;
17921;SDS011;9086;50.966;3.144;2022-12-18T11:13:33;25.37;;;15.10;;
17921;SDS011;9086;50.966;3.144;2022-12-18T11:15:59;25.37;;;15.70;;
17921;SDS011;9086;50.966;3.144;2022-12-18T11:18:29;26.30;;;15.43;;
17921;SDS011;9086;50.966;3.144;2022-12-18T11:21:00;26.33;;;16.37;;
17921;SDS011;9086;50.966;3.144;2022-12-18T11:23:27;26.57;;;16.83;;
17921;SDS011;9086;50.966;3.144;2022-12-18T11:25:57;23.20;;;14.93;;
17921;SDS011;9086;50.966;3.144;2022-12-18T11:33:36;25.47;;;14.97;;
17921;SDS011;9086;50.966;3.144;2022-12-18T11:36:03;22.77;;;14.97;;
17921;SDS011;9086;50.966;3.144;2022-12-18T11:38:39;26.43;;;16.97;;
17921;SDS011;9086;50.966;3.144;2022-12-18T11:43:50;31.70;;;17.60;;
17921;SDS011;9086;50.966;3.144;2022-12-18T11:46:19;27.17;;;16.73;;
17921;SDS011;9086;50.966;3.144;2022-12-18T11:48:49;22.63;;;16.27;;
17921;SDS011;9086;50.966;3.144;2022-12-18T11:51:25;28.90;;;17.53;;
17921;SDS011;9086;50.966;3.144;2022-12-18T11:53:52;29.53;;;14.50;;
17921;SDS011;9086;50.966;3.144;2022-12-18T11:56:32;29.00;;;17.60;;
17921;SDS011;9086;50.966;3.144;2022-12-18T11:59:09;25.07;;;17.30;;
17921;SDS011;9086;50.966;3.144;2022-12-18T12:01:47;28.90;;;18.27;;
17921;SDS011;9086;50.966;3.144;2022-12-18T12:09:43;24.37;;;16.87;;
17921;SDS011;9086;50.966;3.144;2022-12-18T12:12:31;27.30;;;17.77;;
17921;SDS011;9086;50.966;3.144;2022-12-18T12:15:13;30.63;;;18.30;;
17921;SDS011;9086;50.966;3.144;2022-12-18T12:18:07;27.97;;;18.17;;
17921;SDS011;9086;50.966;3.144;2022-12-18T12:23:00;21.63;;;13.17;;
17921;SDS011;9086;50.966;3.144;2022-12-18T12:25:30;27.03;;;15.13;;
17921;SDS011;9086;50.966;3.144;2022-12-18T12:30:52;27.43;;;17.30;;
17921;SDS011;9086;50.966;3.144;2022-12-18T12:38:21;24.00;;;15.53;;
17921;SDS011;9086;50.966;3.144;2022-12-18T12:40:52;29.80;;;18.00;;
17921;SDS011;9086;50.966;3.144;2022-12-18T12:46:07;28.30;;;18.07;;
17921;SDS011;9086;50.966;3.144;2022-12-18T12:48:46;24.80;;;16.47;;
17921;SDS011;9086;50.966;3.144;2022-12-18T12:51:14;37.00;;;20.97;;
17921;SDS011;9086;50.966;3.144;2022-12-18T12:53:41;32.17;;;19.50;;
17921;SDS011;9086;50.966;3.144;2022-12-18T12:56:08;24.97;;;17.63;;
17921;SDS011;9086;50.966;3.144;2022-12-18T12:58:58;28.83;;;17.93;;
17921;SDS011;9086;50.966;3.144;2022-12-18T13:01:28;29.87;;;17.57;;
17921;SDS011;9086;50.966;3.144;2022-12-18T13:04:02;30.47;;;17.60;;
17921;SDS011;9086;50.966;3.144;2022-12-18T13:06:40;29.73;;;19.43;;
17921;SDS011;9086;50.966;3.144;2022-12-18T13:09:08;31.90;;;18.53;;
17921;SDS011;9086;50.966;3.144;2022-12-18T13:14:30;29.40;;;17.80;;
17921;SDS011;9086;50.966;3.144;2022-12-18T13:19:42;34.60;;;20.60;;
17921;SDS011;9086;50.966;3.144;2022-12-18T13:24:53;26.57;;;17.63;;
17921;SDS011;9086;50.966;3.144;2022-12-18T13:30:17;29.40;;;17.60;;
17921;SDS011;9086;50.966;3.144;2022-12-18T13:33:00;25.47;;;16.03;;
17921;SDS011;9086;50.966;3.144;2022-12-18T13:35:37;32.03;;;20.00;;
17921;SDS011;9086;50.966;3.144;2022-12-18T13:38:19;27.60;;;16.50;;
17921;SDS011;9086;50.966;3.144;2022-12-18T13:43:20;33.05;;;21.55;;
17921;SDS011;9086;50.966;3.144;2022-12-18T13:45:48;31.30;;;20.17;;
17921;SDS011;9086;50.966;3.144;2022-12-18T13:48:16;32.80;;;18.37;;
17921;SDS011;9086;50.966;3.144;2022-12-18T13:50:42;26.37;;;17.07;;
17921;SDS011;9086;50.966;3.144;2022-12-18T13:53:15;27.13;;;16.57;;
17921;SDS011;9086;50.966;3.144;2022-12-18T13:55:45;29.10;;;17.90;;
17921;SDS011;9086;50.966;3.144;2022-12-18T13:58:12;32.27;;;18.90;;
17921;SDS011;9086;50.966;3.144;2022-12-18T14:00:41;31.93;;;18.50;;
17921;SDS011;9086;50.966;3.144;2022-12-18T14:03:24;25.87;;;16.90;;
17921;SDS011;9086;50.966;3.144;2022-12-18T14:05:54;32.43;;;19.10;;
17921;SDS011;9086;50.966;3.144;2022-12-18T14:08:32;32.63;;;18.53;;
17921;SDS011;9086;50.966;3.144;2022-12-18T14:10:58;27.23;;;17.53;;
17921;SDS011;9086;50.966;3.144;2022-12-18T14:13:29;31.43;;;19.47;;
17921;SDS011;9086;50.966;3.144;2022-12-18T14:15:56;31.47;;;17.37;;
17921;SDS011;9086;50.966;3.144;2022-12-18T14:20:58;25.97;;;15.97;;
17921;SDS011;9086;50.966;3.144;2022-12-18T14:23:38;29.33;;;18.30;;
17921;SDS011;9086;50.966;3.144;2022-12-18T14:28:45;30.63;;;16.90;;
17921;SDS011;9086;50.966;3.144;2022-12-18T14:31:21;29.60;;;15.67;;
17921;SDS011;9086;50.966;3.144;2022-12-18T14:33:48;30.23;;;17.40;;
17921;SDS011;9086;50.966;3.144;2022-12-18T14:36:15;27.97;;;16.17;;
17921;SDS011;9086;50.966;3.144;2022-12-18T14:38:42;31.80;;;17.27;;
17921;SDS011;9086;50.966;3.144;2022-12-18T14:41:15;31.10;;;19.73;;
17921;SDS011;9086;50.966;3.144;2022-12-18T14:43:44;31.17;;;17.63;;
17921;SDS011;9086;50.966;3.144;2022-12-18T14:46:25;30.27;;;18.07;;
17921;SDS011;9086;50.966;3.144;2022-12-18T14:48:52;30.23;;;15.50;;
17921;SDS011;9086;50.966;3.144;2022-12-18T14:51:19;28.77;;;17.67;;
17921;SDS011;9086;50.966;3.144;2022-12-18T14:56:16;23.00;;;13.37;;
17921;SDS011;9086;50.966;3.144;2022-12-18T14:59:02;29.30;;;16.87;;
17921;SDS011;9086;50.966;3.144;2022-12-18T15:03:55;35.27;;;19.73;;
17921;SDS011;9086;50.966;3.144;2022-12-18T15:08:53;33.67;;;17.60;;
17921;SDS011;9086;50.966;3.144;2022-12-18T15:11:45;32.17;;;17.50;;
17921;SDS011;9086;50.966;3.144;2022-12-18T15:16:53;30.80;;;17.67;;
17921;SDS011;9086;50.966;3.144;2022-12-18T15:19:21;30.63;;;17.60;;
17921;SDS011;9086;50.966;3.144;2022-12-18T15:21:48;30.83;;;17.30;;
17921;SDS011;9086;50.966;3.144;2022-12-18T15:24:18;32.43;;;17.43;;
17921;SDS011;9086;50.966;3.144;2022-12-18T15:26:44;28.97;;;17.37;;
17921;SDS011;9086;50.966;3.144;2022-12-18T15:29:21;32.63;;;17.87;;
17921;SDS011;9086;50.966;3.144;2022-12-18T15:32:10;28.37;;;16.37;;
17921;SDS011;9086;50.966;3.144;2022-12-18T15:34:41;24.93;;;14.57;;
17921;SDS011;9086;50.966;3.144;2022-12-18T15:37:07;28.27;;;16.07;;
17921;SDS011;9086;50.966;3.144;2022-12-18T15:39:34;31.97;;;16.70;;
17921;SDS011;9086;50.966;3.144;2022-12-18T15:42:00;30.37;;;17.03;;
17921;SDS011;9086;50.966;3.144;2022-12-18T15:44:45;29.20;;;15.07;;
17921;SDS011;9086;50.966;3.144;2022-12-18T15:47:12;29.47;;;15.53;;
17921;SDS011;9086;50.966;3.144;2022-12-18T15:49:39;31.93;;;17.83;;
17921;SDS011;9086;50.966;3.144;2022-12-18T15:52:05;30.23;;;17.70;;
17921;SDS011;9086;50.966;3.144;2022-12-18T15:54:31;33.63;;;19.73;;
17921;SDS011;9086;50.966;3.144;2022-12-18T15:57:16;31.33;;;17.10;;
17921;SDS011;9086;50.966;3.144;2022-12-18T15:59:48;31.00;;;17.93;;
17921;SDS011;9086;50.966;3.144;2022-12-18T16:02:15;31.67;;;17.60;;
17921;SDS011;9086;50.966;3.144;2022-12-18T16:04:42;30.00;;;17.60;;
17921;SDS011;9086;50.966;3.144;2022-12-18T16:07:08;32.23;;;19.13;;
17921;SDS011;9086;50.966;3.144;2022-12-18T16:09:35;36.03;;;18.63;;
17921;SDS011;9086;50.966;3.144;2022-12-18T16:12:01;34.50;;;19.87;;
17921;SDS011;9086;50.966;3.144;2022-12-18T16:14:30;33.20;;;18.80;;